sensor_id;sensor_type;location;lat;lon;timestamp;P1;durP1;ratioP1;P2;durP2;ratioP2
4692;SDS011;11710;48.024;16.296;2023-06-04T00:00:20;6.83;;;3.73;;
4692;SDS011;11710;48.024;16.296;2023-06-04T00:02:47;6.03;;;4.23;;
4692;SDS011;11710;48.024;16.296;2023-06-04T00:05:14;5.50;;;3.50;;
4692;SDS011;11710;48.024;16.296;2023-06-04T00:07:41;5.87;;;4.10;;
4692;SDS011;11710;48.024;16.296;2023-06-04T00:10:09;6.03;;;3.60;;
4692;SDS011;11710;48.024;16.296;2023-06-04T00:12:36;4.93;;;3.70;;
4692;SDS011;11710;48.024;16.296;2023-06-04T00:15:06;5.40;;;3.50;;
4692;SDS011;11710;48.024;16.296;2023-06-04T00:17:34;6.53;;;4.37;;
4692;SDS011;11710;48.024;16.296;2023-06-04T00:20:01;5.17;;;3.87;;
4692;SDS011;11710;48.024;16.296;2023-06-04T00:22:28;5.80;;;3.73;;
4692;SDS011;11710;48.024;16.296;2023-06-04T00:24:56;4.60;;;3.80;;
4692;SDS011;11710;48.024;16.296;2023-06-04T00:27:23;4.03;;;3.50;;
4692;SDS011;11710;48.024;16.296;2023-06-04T00:29:50;4.30;;;3.90;;
4692;SDS011;11710;48.024;16.296;2023-06-04T00:32:18;4.23;;;3.30;;
4692;SDS011;11710;48.024;16.296;2023-06-04T00:34:50;8.20;;;4.13;;
4692;SDS011;11710;48.024;16.296;2023-06-04T00:37:17;5.77;;;4.13;;
4692;SDS011;11710;48.024;16.296;2023-06-04T00:39:45;6.50;;;3.90;;
4692;SDS011;11710;48.024;16.296;2023-06-04T00:42:12;5.20;;;3.27;;
4692;SDS011;11710;48.024;16.296;2023-06-04T00:44:39;4.57;;;4.10;;
4692;SDS011;11710;48.024;16.296;2023-06-04T00:47:10;7.00;;;4.70;;
4692;SDS011;11710;48.024;16.296;2023-06-04T00:49:39;6.13;;;4.80;;
4692;SDS011;11710;48.024;16.296;2023-06-04T00:52:07;4.27;;;3.60;;
4692;SDS011;11710;48.024;16.296;2023-06-04T00:54:35;5.93;;;4.27;;
4692;SDS011;11710;48.024;16.296;2023-06-04T00:57:03;4.87;;;3.43;;
4692;SDS011;11710;48.024;16.296;2023-06-04T00:59:32;5.00;;;3.83;;
4692;SDS011;11710;48.024;16.296;2023-06-04T01:02:02;4.30;;;3.90;;
4692;SDS011;11710;48.024;16.296;2023-06-04T01:04:33;4.10;;;3.70;;
4692;SDS011;11710;48.024;16.296;2023-06-04T01:07:04;6.17;;;4.30;;
4692;SDS011;11710;48.024;16.296;2023-06-04T01:09:37;6.20;;;3.97;;
4692;SDS011;11710;48.024;16.296;2023-06-04T01:12:06;4.90;;;4.30;;
4692;SDS011;11710;48.024;16.296;2023-06-04T01:14:35;3.90;;;3.50;;
4692;SDS011;11710;48.024;16.296;2023-06-04T01:17:04;4.00;;;3.60;;
4692;SDS011;11710;48.024;16.296;2023-06-04T01:22:39;5.10;;;3.83;;
4692;SDS011;11710;48.024;16.296;2023-06-04T01:25:15;5.07;;;4.10;;
4692;SDS011;11710;48.024;16.296;2023-06-04T01:27:49;5.13;;;4.00;;
4692;SDS011;11710;48.024;16.296;2023-06-04T01:30:18;5.13;;;4.17;;
4692;SDS011;11710;48.024;16.296;2023-06-04T01:32:49;6.60;;;4.27;;
4692;SDS011;11710;48.024;16.296;2023-06-04T01:35:16;4.90;;;4.20;;
4692;SDS011;11710;48.024;16.296;2023-06-04T01:37:45;4.03;;;3.63;;
4692;SDS011;11710;48.024;16.296;2023-06-04T01:40:13;7.97;;;4.30;;
4692;SDS011;11710;48.024;16.296;2023-06-04T01:42:40;7.93;;;4.70;;
4692;SDS011;11710;48.024;16.296;2023-06-04T01:45:08;5.67;;;4.37;;
4692;SDS011;11710;48.024;16.296;2023-06-04T01:47:37;5.03;;;4.20;;
4692;SDS011;11710;48.024;16.296;2023-06-04T01:50:04;5.17;;;4.20;;
4692;SDS011;11710;48.024;16.296;2023-06-04T01:52:34;6.07;;;4.40;;
4692;SDS011;11710;48.024;16.296;2023-06-04T01:55:03;5.80;;;3.97;;
4692;SDS011;11710;48.024;16.296;2023-06-04T01:57:32;5.00;;;3.70;;
4692;SDS011;11710;48.024;16.296;2023-06-04T02:00:00;4.97;;;4.17;;
4692;SDS011;11710;48.024;16.296;2023-06-04T02:02:28;4.83;;;4.17;;
4692;SDS011;11710;48.024;16.296;2023-06-04T02:04:56;5.73;;;3.90;;
4692;SDS011;11710;48.024;16.296;2023-06-04T02:07:23;5.90;;;4.40;;
4692;SDS011;11710;48.024;16.296;2023-06-04T02:09:51;5.47;;;4.27;;
4692;SDS011;11710;48.024;16.296;2023-06-04T02:12:20;5.00;;;4.00;;
4692;SDS011;11710;48.024;16.296;2023-06-04T02:14:47;5.07;;;4.57;;
4692;SDS011;11710;48.024;16.296;2023-06-04T02:17:14;4.83;;;4.30;;
4692;SDS011;11710;48.024;16.296;2023-06-04T02:19:42;7.53;;;4.70;;
4692;SDS011;11710;48.024;16.296;2023-06-04T02:22:14;6.63;;;4.57;;
4692;SDS011;11710;48.024;16.296;2023-06-04T02:24:42;6.40;;;4.30;;
4692;SDS011;11710;48.024;16.296;2023-06-04T02:27:09;6.67;;;4.40;;
4692;SDS011;11710;48.024;16.296;2023-06-04T02:29:38;5.70;;;4.03;;
4692;SDS011;11710;48.024;16.296;2023-06-04T02:32:07;5.57;;;4.57;;
4692;SDS011;11710;48.024;16.296;2023-06-04T02:34:35;5.33;;;4.20;;
4692;SDS011;11710;48.024;16.296;2023-06-04T02:37:03;6.10;;;4.23;;
4692;SDS011;11710;48.024;16.296;2023-06-04T02:39:30;7.00;;;4.80;;
4692;SDS011;11710;48.024;16.296;2023-06-04T02:41:58;5.10;;;4.20;;
4692;SDS011;11710;48.024;16.296;2023-06-04T02:44:25;6.23;;;4.33;;
4692;SDS011;11710;48.024;16.296;2023-06-04T02:46:56;4.57;;;3.70;;
4692;SDS011;11710;48.024;16.296;2023-06-04T02:49:23;5.57;;;3.73;;
4692;SDS011;11710;48.024;16.296;2023-06-04T02:51:51;5.13;;;4.63;;
4692;SDS011;11710;48.024;16.296;2023-06-04T02:54:18;7.47;;;4.17;;
4692;SDS011;11710;48.024;16.296;2023-06-04T02:56:45;6.70;;;4.47;;
4692;SDS011;11710;48.024;16.296;2023-06-04T02:59:14;5.53;;;4.40;;
4692;SDS011;11710;48.024;16.296;2023-06-04T03:01:42;6.23;;;4.33;;
4692;SDS011;11710;48.024;16.296;2023-06-04T03:04:10;5.67;;;4.30;;
4692;SDS011;11710;48.024;16.296;2023-06-04T03:06:41;5.07;;;4.10;;
4692;SDS011;11710;48.024;16.296;2023-06-04T03:09:11;6.27;;;4.30;;
4692;SDS011;11710;48.024;16.296;2023-06-04T03:11:40;5.40;;;4.37;;
4692;SDS011;11710;48.024;16.296;2023-06-04T03:14:07;5.00;;;3.90;;
4692;SDS011;11710;48.024;16.296;2023-06-04T03:16:35;7.90;;;4.37;;
4692;SDS011;11710;48.024;16.296;2023-06-04T03:19:05;5.70;;;4.70;;
4692;SDS011;11710;48.024;16.296;2023-06-04T03:21:33;5.23;;;4.00;;
4692;SDS011;11710;48.024;16.296;2023-06-04T03:24:04;5.70;;;4.20;;
4692;SDS011;11710;48.024;16.296;2023-06-04T03:26:32;7.37;;;4.80;;
4692;SDS011;11710;48.024;16.296;2023-06-04T03:28:59;8.37;;;5.03;;
4692;SDS011;11710;48.024;16.296;2023-06-04T03:31:26;7.70;;;4.47;;
4692;SDS011;11710;48.024;16.296;2023-06-04T03:33:54;4.80;;;4.30;;
4692;SDS011;11710;48.024;16.296;2023-06-04T03:36:21;5.50;;;4.80;;
4692;SDS011;11710;48.024;16.296;2023-06-04T03:38:58;6.17;;;5.10;;
4692;SDS011;11710;48.024;16.296;2023-06-04T03:41:25;6.27;;;4.30;;
4692;SDS011;11710;48.024;16.296;2023-06-04T03:43:52;6.13;;;4.63;;
4692;SDS011;11710;48.024;16.296;2023-06-04T03:46:19;7.43;;;4.83;;
4692;SDS011;11710;48.024;16.296;2023-06-04T03:48:46;4.87;;;4.30;;
4692;SDS011;11710;48.024;16.296;2023-06-04T03:51:14;7.60;;;5.00;;
4692;SDS011;11710;48.024;16.296;2023-06-04T03:53:41;5.23;;;4.40;;
4692;SDS011;11710;48.024;16.296;2023-06-04T03:56:10;7.93;;;4.83;;
4692;SDS011;11710;48.024;16.296;2023-06-04T03:58:38;7.53;;;4.90;;
4692;SDS011;11710;48.024;16.296;2023-06-04T04:01:05;5.70;;;4.57;;
4692;SDS011;11710;48.024;16.296;2023-06-04T04:03:35;6.53;;;4.97;;
4692;SDS011;11710;48.024;16.296;2023-06-04T04:06:03;8.07;;;4.70;;
4692;SDS011;11710;48.024;16.296;2023-06-04T04:08:30;6.27;;;4.70;;
4692;SDS011;11710;48.024;16.296;2023-06-04T04:10:59;6.13;;;4.87;;
4692;SDS011;11710;48.024;16.296;2023-06-04T04:13:28;6.03;;;4.93;;
4692;SDS011;11710;48.024;16.296;2023-06-04T04:15:55;4.50;;;3.87;;
4692;SDS011;11710;48.024;16.296;2023-06-04T04:18:22;8.00;;;5.60;;
4692;SDS011;11710;48.024;16.296;2023-06-04T04:20:50;6.60;;;4.63;;
4692;SDS011;11710;48.024;16.296;2023-06-04T04:23:18;6.03;;;4.30;;
4692;SDS011;11710;48.024;16.296;2023-06-04T04:25:45;4.53;;;4.10;;
4692;SDS011;11710;48.024;16.296;2023-06-04T04:28:12;7.10;;;4.40;;
4692;SDS011;11710;48.024;16.296;2023-06-04T04:30:43;6.20;;;4.40;;
4692;SDS011;11710;48.024;16.296;2023-06-04T04:33:12;9.40;;;4.23;;
4692;SDS011;11710;48.024;16.296;2023-06-04T04:35:41;4.57;;;4.13;;
4692;SDS011;11710;48.024;16.296;2023-06-04T04:38:09;5.87;;;4.63;;
4692;SDS011;11710;48.024;16.296;2023-06-04T04:40:37;8.53;;;5.30;;
4692;SDS011;11710;48.024;16.296;2023-06-04T04:43:04;6.50;;;5.07;;
4692;SDS011;11710;48.024;16.296;2023-06-04T04:45:32;7.07;;;5.20;;
4692;SDS011;11710;48.024;16.296;2023-06-04T04:48:01;10.40;;;5.43;;
4692;SDS011;11710;48.024;16.296;2023-06-04T04:50:28;6.40;;;4.90;;
4692;SDS011;11710;48.024;16.296;2023-06-04T04:52:56;5.27;;;4.43;;
4692;SDS011;11710;48.024;16.296;2023-06-04T04:55:24;8.87;;;6.13;;
4692;SDS011;11710;48.024;16.296;2023-06-04T04:57:51;7.70;;;6.03;;
4692;SDS011;11710;48.024;16.296;2023-06-04T05:00:19;7.30;;;6.13;;
4692;SDS011;11710;48.024;16.296;2023-06-04T05:02:46;9.70;;;6.47;;
4692;SDS011;11710;48.024;16.296;2023-06-04T05:05:15;7.87;;;6.83;;
4692;SDS011;11710;48.024;16.296;2023-06-04T05:07:42;8.20;;;6.30;;
4692;SDS011;11710;48.024;16.296;2023-06-04T05:10:10;9.03;;;6.87;;
4692;SDS011;11710;48.024;16.296;2023-06-04T05:12:38;9.07;;;6.27;;
4692;SDS011;11710;48.024;16.296;2023-06-04T05:15:06;9.37;;;6.40;;
4692;SDS011;11710;48.024;16.296;2023-06-04T05:17:37;8.37;;;6.73;;
4692;SDS011;11710;48.024;16.296;2023-06-04T05:20:05;8.10;;;6.33;;
4692;SDS011;11710;48.024;16.296;2023-06-04T05:22:38;8.97;;;6.30;;
4692;SDS011;11710;48.024;16.296;2023-06-04T05:25:06;8.17;;;6.30;;
4692;SDS011;11710;48.024;16.296;2023-06-04T05:27:34;7.10;;;6.40;;
4692;SDS011;11710;48.024;16.296;2023-06-04T05:30:02;8.30;;;6.30;;
4692;SDS011;11710;48.024;16.296;2023-06-04T05:32:30;8.83;;;6.80;;
4692;SDS011;11710;48.024;16.296;2023-06-04T05:34:59;7.37;;;6.43;;
4692;SDS011;11710;48.024;16.296;2023-06-04T05:37:28;7.40;;;6.50;;
4692;SDS011;11710;48.024;16.296;2023-06-04T05:39:57;9.57;;;6.80;;
4692;SDS011;11710;48.024;16.296;2023-06-04T05:42:24;8.20;;;6.40;;
4692;SDS011;11710;48.024;16.296;2023-06-04T05:44:51;9.47;;;7.57;;
4692;SDS011;11710;48.024;16.296;2023-06-04T05:47:18;9.63;;;6.80;;
4692;SDS011;11710;48.024;16.296;2023-06-04T05:49:46;9.43;;;6.87;;
4692;SDS011;11710;48.024;16.296;2023-06-04T05:52:13;8.73;;;6.90;;
4692;SDS011;11710;48.024;16.296;2023-06-04T05:54:40;7.67;;;6.30;;
4692;SDS011;11710;48.024;16.296;2023-06-04T05:57:09;9.20;;;6.57;;
4692;SDS011;11710;48.024;16.296;2023-06-04T05:59:36;8.30;;;7.03;;
4692;SDS011;11710;48.024;16.296;2023-06-04T06:02:03;8.70;;;6.90;;
4692;SDS011;11710;48.024;16.296;2023-06-04T06:04:31;8.37;;;6.67;;
4692;SDS011;11710;48.024;16.296;2023-06-04T06:06:58;10.70;;;6.63;;
4692;SDS011;11710;48.024;16.296;2023-06-04T06:09:26;10.77;;;7.00;;
4692;SDS011;11710;48.024;16.296;2023-06-04T06:11:53;9.37;;;7.20;;
4692;SDS011;11710;48.024;16.296;2023-06-04T06:14:22;7.90;;;5.97;;
4692;SDS011;11710;48.024;16.296;2023-06-04T06:16:49;13.20;;;6.90;;
4692;SDS011;11710;48.024;16.296;2023-06-04T06:19:18;8.70;;;6.70;;
4692;SDS011;11710;48.024;16.296;2023-06-04T06:21:45;8.57;;;6.70;;
4692;SDS011;11710;48.024;16.296;2023-06-04T06:24:12;7.40;;;6.53;;
4692;SDS011;11710;48.024;16.296;2023-06-04T06:26:39;8.27;;;7.17;;
4692;SDS011;11710;48.024;16.296;2023-06-04T06:29:08;10.37;;;7.10;;
4692;SDS011;11710;48.024;16.296;2023-06-04T06:31:36;11.03;;;6.70;;
4692;SDS011;11710;48.024;16.296;2023-06-04T06:34:03;7.83;;;6.10;;
4692;SDS011;11710;48.024;16.296;2023-06-04T06:36:31;10.80;;;7.00;;
4692;SDS011;11710;48.024;16.296;2023-06-04T06:38:59;7.70;;;6.00;;
4692;SDS011;11710;48.024;16.296;2023-06-04T06:41:26;7.60;;;6.40;;
4692;SDS011;11710;48.024;16.296;2023-06-04T06:43:56;7.57;;;6.77;;
4692;SDS011;11710;48.024;16.296;2023-06-04T06:46:23;9.30;;;6.73;;
4692;SDS011;11710;48.024;16.296;2023-06-04T06:48:52;8.03;;;5.80;;
4692;SDS011;11710;48.024;16.296;2023-06-04T06:51:19;8.13;;;5.43;;
4692;SDS011;11710;48.024;16.296;2023-06-04T06:53:46;7.30;;;6.43;;
4692;SDS011;11710;48.024;16.296;2023-06-04T06:56:15;7.23;;;5.80;;
4692;SDS011;11710;48.024;16.296;2023-06-04T06:58:43;7.27;;;5.60;;
4692;SDS011;11710;48.024;16.296;2023-06-04T07:01:10;6.40;;;5.70;;
4692;SDS011;11710;48.024;16.296;2023-06-04T07:03:38;7.20;;;5.17;;
4692;SDS011;11710;48.024;16.296;2023-06-04T07:06:07;8.57;;;5.67;;
4692;SDS011;11710;48.024;16.296;2023-06-04T07:08:34;8.13;;;6.00;;
4692;SDS011;11710;48.024;16.296;2023-06-04T07:11:01;7.77;;;6.27;;
4692;SDS011;11710;48.024;16.296;2023-06-04T07:13:29;8.27;;;5.80;;
4692;SDS011;11710;48.024;16.296;2023-06-04T07:15:58;6.57;;;5.23;;
4692;SDS011;11710;48.024;16.296;2023-06-04T07:18:26;8.53;;;5.60;;
4692;SDS011;11710;48.024;16.296;2023-06-04T07:20:53;7.53;;;6.00;;
4692;SDS011;11710;48.024;16.296;2023-06-04T07:23:22;8.43;;;5.97;;
4692;SDS011;11710;48.024;16.296;2023-06-04T07:25:49;5.87;;;5.17;;
4692;SDS011;11710;48.024;16.296;2023-06-04T07:28:16;7.23;;;5.23;;
4692;SDS011;11710;48.024;16.296;2023-06-04T07:30:45;6.73;;;5.30;;
4692;SDS011;11710;48.024;16.296;2023-06-04T07:33:12;5.90;;;5.17;;
4692;SDS011;11710;48.024;16.296;2023-06-04T07:35:40;7.30;;;5.10;;
4692;SDS011;11710;48.024;16.296;2023-06-04T07:38:07;8.77;;;5.23;;
4692;SDS011;11710;48.024;16.296;2023-06-04T07:40:36;6.87;;;5.40;;
4692;SDS011;11710;48.024;16.296;2023-06-04T07:43:03;9.83;;;6.33;;
4692;SDS011;11710;48.024;16.296;2023-06-04T07:45:31;6.53;;;5.80;;
4692;SDS011;11710;48.024;16.296;2023-06-04T07:47:58;7.83;;;5.40;;
4692;SDS011;11710;48.024;16.296;2023-06-04T07:50:25;5.97;;;5.37;;
4692;SDS011;11710;48.024;16.296;2023-06-04T07:52:52;7.97;;;5.30;;
4692;SDS011;11710;48.024;16.296;2023-06-04T07:55:19;7.70;;;6.00;;
4692;SDS011;11710;48.024;16.296;2023-06-04T07:57:49;7.33;;;6.13;;
4692;SDS011;11710;48.024;16.296;2023-06-04T08:00:16;10.13;;;5.57;;
4692;SDS011;11710;48.024;16.296;2023-06-04T08:02:45;7.97;;;5.53;;
4692;SDS011;11710;48.024;16.296;2023-06-04T08:05:13;6.13;;;5.27;;
4692;SDS011;11710;48.024;16.296;2023-06-04T08:07:41;6.70;;;5.50;;
4692;SDS011;11710;48.024;16.296;2023-06-04T08:10:09;8.43;;;6.37;;
4692;SDS011;11710;48.024;16.296;2023-06-04T08:12:36;8.13;;;6.17;;
4692;SDS011;11710;48.024;16.296;2023-06-04T08:15:06;8.17;;;6.50;;
4692;SDS011;11710;48.024;16.296;2023-06-04T08:17:34;7.10;;;5.67;;
4692;SDS011;11710;48.024;16.296;2023-06-04T08:20:01;7.30;;;5.90;;
4692;SDS011;11710;48.024;16.296;2023-06-04T08:22:31;8.20;;;6.00;;
4692;SDS011;11710;48.024;16.296;2023-06-04T08:24:58;7.90;;;6.00;;
4692;SDS011;11710;48.024;16.296;2023-06-04T08:27:25;6.83;;;5.27;;
4692;SDS011;11710;48.024;16.296;2023-06-04T08:29:53;8.43;;;5.73;;
4692;SDS011;11710;48.024;16.296;2023-06-04T08:32:22;7.30;;;5.50;;
4692;SDS011;11710;48.024;16.296;2023-06-04T08:34:49;9.23;;;5.80;;
4692;SDS011;11710;48.024;16.296;2023-06-04T08:37:16;8.23;;;6.20;;
4692;SDS011;11710;48.024;16.296;2023-06-04T08:39:44;6.83;;;6.13;;
4692;SDS011;11710;48.024;16.296;2023-06-04T08:42:13;9.43;;;5.63;;
4692;SDS011;11710;48.024;16.296;2023-06-04T08:44:50;6.50;;;5.80;;
4692;SDS011;11710;48.024;16.296;2023-06-04T08:47:18;6.80;;;5.87;;
4692;SDS011;11710;48.024;16.296;2023-06-04T08:49:49;6.17;;;5.30;;
4692;SDS011;11710;48.024;16.296;2023-06-04T08:52:17;7.70;;;6.03;;
4692;SDS011;11710;48.024;16.296;2023-06-04T08:54:48;6.80;;;6.10;;
4692;SDS011;11710;48.024;16.296;2023-06-04T08:57:17;6.23;;;5.63;;
4692;SDS011;11710;48.024;16.296;2023-06-04T08:59:45;6.60;;;5.00;;
4692;SDS011;11710;48.024;16.296;2023-06-04T09:02:13;9.97;;;5.17;;
4692;SDS011;11710;48.024;16.296;2023-06-04T09:04:41;7.30;;;5.30;;
4692;SDS011;11710;48.024;16.296;2023-06-04T09:07:12;7.77;;;6.17;;
4692;SDS011;11710;48.024;16.296;2023-06-04T09:09:40;8.03;;;6.40;;
4692;SDS011;11710;48.024;16.296;2023-06-04T09:12:14;8.33;;;6.03;;
4692;SDS011;11710;48.024;16.296;2023-06-04T09:14:48;6.93;;;6.10;;
4692;SDS011;11710;48.024;16.296;2023-06-04T09:17:20;11.43;;;6.80;;
4692;SDS011;11710;48.024;16.296;2023-06-04T09:19:48;7.70;;;6.40;;
4692;SDS011;11710;48.024;16.296;2023-06-04T09:22:18;8.73;;;6.03;;
4692;SDS011;11710;48.024;16.296;2023-06-04T09:24:45;7.50;;;6.27;;
4692;SDS011;11710;48.024;16.296;2023-06-04T09:27:15;6.63;;;5.70;;
4692;SDS011;11710;48.024;16.296;2023-06-04T09:29:50;7.00;;;5.60;;
4692;SDS011;11710;48.024;16.296;2023-06-04T09:32:22;6.43;;;5.70;;
4692;SDS011;11710;48.024;16.296;2023-06-04T09:34:49;8.30;;;6.57;;
4692;SDS011;11710;48.024;16.296;2023-06-04T09:37:19;6.93;;;6.07;;
4692;SDS011;11710;48.024;16.296;2023-06-04T09:39:52;6.43;;;5.50;;
4692;SDS011;11710;48.024;16.296;2023-06-04T09:42:21;5.90;;;5.23;;
4692;SDS011;11710;48.024;16.296;2023-06-04T09:44:48;9.50;;;6.53;;
4692;SDS011;11710;48.024;16.296;2023-06-04T09:47:16;7.50;;;5.53;;
4692;SDS011;11710;48.024;16.296;2023-06-04T09:49:44;7.57;;;6.47;;
4692;SDS011;11710;48.024;16.296;2023-06-04T09:52:12;5.87;;;5.27;;
4692;SDS011;11710;48.024;16.296;2023-06-04T09:54:42;6.60;;;5.40;;
4692;SDS011;11710;48.024;16.296;2023-06-04T09:57:13;7.20;;;5.57;;
4692;SDS011;11710;48.024;16.296;2023-06-04T09:59:43;9.23;;;7.73;;
4692;SDS011;11710;48.024;16.296;2023-06-04T10:02:12;9.20;;;6.13;;
4692;SDS011;11710;48.024;16.296;2023-06-04T10:04:40;7.10;;;5.30;;
4692;SDS011;11710;48.024;16.296;2023-06-04T10:07:09;6.67;;;5.40;;
4692;SDS011;11710;48.024;16.296;2023-06-04T10:09:38;8.57;;;5.70;;
4692;SDS011;11710;48.024;16.296;2023-06-04T10:12:13;5.77;;;4.80;;
4692;SDS011;11710;48.024;16.296;2023-06-04T10:14:43;9.03;;;5.57;;
4692;SDS011;11710;48.024;16.296;2023-06-04T10:17:17;7.70;;;5.00;;
4692;SDS011;11710;48.024;16.296;2023-06-04T10:19:50;10.50;;;4.80;;
4692;SDS011;11710;48.024;16.296;2023-06-04T10:22:19;6.13;;;5.57;;
4692;SDS011;11710;48.024;16.296;2023-06-04T10:24:47;4.93;;;4.00;;
4692;SDS011;11710;48.024;16.296;2023-06-04T10:27:17;6.03;;;4.90;;
4692;SDS011;11710;48.024;16.296;2023-06-04T10:29:45;5.10;;;4.07;;
4692;SDS011;11710;48.024;16.296;2023-06-04T10:32:13;5.10;;;4.30;;
4692;SDS011;11710;48.024;16.296;2023-06-04T10:34:41;5.20;;;4.70;;
4692;SDS011;11710;48.024;16.296;2023-06-04T10:37:18;17.07;;;15.30;;
4692;SDS011;11710;48.024;16.296;2023-06-04T10:39:50;5.50;;;4.97;;
4692;SDS011;11710;48.024;16.296;2023-06-04T10:42:21;4.80;;;4.30;;
4692;SDS011;11710;48.024;16.296;2023-06-04T10:44:49;5.83;;;3.87;;
4692;SDS011;11710;48.024;16.296;2023-06-04T10:47:18;4.47;;;3.87;;
4692;SDS011;11710;48.024;16.296;2023-06-04T10:49:47;4.00;;;3.30;;
4692;SDS011;11710;48.024;16.296;2023-06-04T10:52:15;4.33;;;3.93;;
4692;SDS011;11710;48.024;16.296;2023-06-04T10:54:44;7.03;;;4.23;;
4692;SDS011;11710;48.024;16.296;2023-06-04T10:57:14;4.57;;;3.47;;
4692;SDS011;11710;48.024;16.296;2023-06-04T10:59:54;4.33;;;3.60;;
4692;SDS011;11710;48.024;16.296;2023-06-04T11:02:22;8.10;;;4.73;;
4692;SDS011;11710;48.024;16.296;2023-06-04T11:04:58;5.07;;;3.60;;
4692;SDS011;11710;48.024;16.296;2023-06-04T11:07:40;5.37;;;3.37;;
4692;SDS011;11710;48.024;16.296;2023-06-04T11:10:09;5.27;;;3.80;;
4692;SDS011;11710;48.024;16.296;2023-06-04T11:12:44;4.67;;;4.00;;
4692;SDS011;11710;48.024;16.296;2023-06-04T11:15:16;5.10;;;3.07;;
4692;SDS011;11710;48.024;16.296;2023-06-04T11:17:50;5.50;;;3.33;;
4692;SDS011;11710;48.024;16.296;2023-06-04T11:20:18;4.00;;;3.50;;
4692;SDS011;11710;48.024;16.296;2023-06-04T11:22:50;4.10;;;3.20;;
4692;SDS011;11710;48.024;16.296;2023-06-04T11:25:19;4.70;;;3.07;;
4692;SDS011;11710;48.024;16.296;2023-06-04T11:27:47;4.60;;;3.43;;
4692;SDS011;11710;48.024;16.296;2023-06-04T11:30:17;4.00;;;3.50;;
4692;SDS011;11710;48.024;16.296;2023-06-04T11:32:44;3.70;;;3.40;;
4692;SDS011;11710;48.024;16.296;2023-06-04T11:35:11;3.53;;;3.17;;
4692;SDS011;11710;48.024;16.296;2023-06-04T11:37:39;3.77;;;3.37;;
4692;SDS011;11710;48.024;16.296;2023-06-04T11:40:16;5.90;;;3.57;;
4692;SDS011;11710;48.024;16.296;2023-06-04T11:42:44;5.30;;;3.27;;
4692;SDS011;11710;48.024;16.296;2023-06-04T11:45:13;4.20;;;3.30;;
4692;SDS011;11710;48.024;16.296;2023-06-04T11:47:45;6.57;;;3.77;;
4692;SDS011;11710;48.024;16.296;2023-06-04T11:50:14;4.10;;;3.70;;
4692;SDS011;11710;48.024;16.296;2023-06-04T11:52:41;4.63;;;3.33;;
4692;SDS011;11710;48.024;16.296;2023-06-04T11:55:09;3.63;;;3.03;;
4692;SDS011;11710;48.024;16.296;2023-06-04T11:57:38;3.47;;;3.00;;
4692;SDS011;11710;48.024;16.296;2023-06-04T12:00:07;5.00;;;2.80;;
4692;SDS011;11710;48.024;16.296;2023-06-04T12:02:37;4.47;;;3.23;;
4692;SDS011;11710;48.024;16.296;2023-06-04T12:05:13;3.50;;;2.90;;
4692;SDS011;11710;48.024;16.296;2023-06-04T12:07:43;3.40;;;3.10;;
4692;SDS011;11710;48.024;16.296;2023-06-04T12:10:11;5.23;;;3.10;;
4692;SDS011;11710;48.024;16.296;2023-06-04T12:12:39;3.70;;;2.90;;
4692;SDS011;11710;48.024;16.296;2023-06-04T12:15:07;2.80;;;2.60;;
4692;SDS011;11710;48.024;16.296;2023-06-04T12:17:36;3.47;;;3.07;;
4692;SDS011;11710;48.024;16.296;2023-06-04T12:20:04;3.77;;;3.27;;
4692;SDS011;11710;48.024;16.296;2023-06-04T12:22:34;3.40;;;2.73;;
4692;SDS011;11710;48.024;16.296;2023-06-04T12:25:12;3.10;;;2.57;;
4692;SDS011;11710;48.024;16.296;2023-06-04T12:27:53;5.17;;;3.03;;
4692;SDS011;11710;48.024;16.296;2023-06-04T12:30:20;4.87;;;3.33;;
4692;SDS011;11710;48.024;16.296;2023-06-04T12:32:47;3.67;;;3.10;;
4692;SDS011;11710;48.024;16.296;2023-06-04T12:35:16;4.03;;;2.93;;
4692;SDS011;11710;48.024;16.296;2023-06-04T12:37:44;3.90;;;3.00;;
4692;SDS011;11710;48.024;16.296;2023-06-04T12:40:11;6.87;;;2.97;;
4692;SDS011;11710;48.024;16.296;2023-06-04T12:42:39;4.47;;;2.97;;
4692;SDS011;11710;48.024;16.296;2023-06-04T12:45:09;6.77;;;3.03;;
4692;SDS011;11710;48.024;16.296;2023-06-04T12:47:39;4.03;;;3.10;;
4692;SDS011;11710;48.024;16.296;2023-06-04T12:50:09;3.53;;;2.80;;
4692;SDS011;11710;48.024;16.296;2023-06-04T12:52:39;5.13;;;3.00;;
4692;SDS011;11710;48.024;16.296;2023-06-04T12:55:09;3.40;;;3.10;;
4692;SDS011;11710;48.024;16.296;2023-06-04T12:57:41;5.37;;;2.93;;
4692;SDS011;11710;48.024;16.296;2023-06-04T13:00:10;3.70;;;3.30;;
4692;SDS011;11710;48.024;16.296;2023-06-04T13:02:40;3.30;;;3.00;;
4692;SDS011;11710;48.024;16.296;2023-06-04T13:05:08;5.73;;;3.20;;
4692;SDS011;11710;48.024;16.296;2023-06-04T13:07:41;4.47;;;2.93;;
4692;SDS011;11710;48.024;16.296;2023-06-04T13:10:10;5.03;;;3.00;;
4692;SDS011;11710;48.024;16.296;2023-06-04T13:12:37;5.20;;;2.80;;
4692;SDS011;11710;48.024;16.296;2023-06-04T13:15:05;5.40;;;3.83;;
4692;SDS011;11710;48.024;16.296;2023-06-04T13:17:32;3.40;;;2.70;;
4692;SDS011;11710;48.024;16.296;2023-06-04T13:19:59;3.30;;;3.00;;
4692;SDS011;11710;48.024;16.296;2023-06-04T13:22:27;4.17;;;3.13;;
4692;SDS011;11710;48.024;16.296;2023-06-04T13:24:54;4.20;;;3.00;;
4692;SDS011;11710;48.024;16.296;2023-06-04T13:27:25;3.43;;;3.13;;
4692;SDS011;11710;48.024;16.296;2023-06-04T13:29:53;3.00;;;2.70;;
4692;SDS011;11710;48.024;16.296;2023-06-04T13:32:21;4.30;;;3.10;;
4692;SDS011;11710;48.024;16.296;2023-06-04T13:34:48;4.60;;;3.00;;
4692;SDS011;11710;48.024;16.296;2023-06-04T13:37:16;3.93;;;3.20;;
4692;SDS011;11710;48.024;16.296;2023-06-04T13:39:43;4.30;;;3.13;;
4692;SDS011;11710;48.024;16.296;2023-06-04T13:42:10;3.37;;;3.03;;
4692;SDS011;11710;48.024;16.296;2023-06-04T13:44:39;5.30;;;3.20;;
4692;SDS011;11710;48.024;16.296;2023-06-04T13:47:06;3.50;;;3.20;;
4692;SDS011;11710;48.024;16.296;2023-06-04T13:49:34;4.70;;;3.33;;
4692;SDS011;11710;48.024;16.296;2023-06-04T13:52:01;3.10;;;2.80;;
4692;SDS011;11710;48.024;16.296;2023-06-04T13:54:28;3.63;;;2.90;;
4692;SDS011;11710;48.024;16.296;2023-06-04T13:56:56;3.47;;;2.73;;
4692;SDS011;11710;48.024;16.296;2023-06-04T13:59:23;4.33;;;3.03;;
4692;SDS011;11710;48.024;16.296;2023-06-04T14:01:52;4.10;;;3.43;;
4692;SDS011;11710;48.024;16.296;2023-06-04T14:04:19;3.87;;;2.97;;
4692;SDS011;11710;48.024;16.296;2023-06-04T14:06:47;4.07;;;3.37;;
4692;SDS011;11710;48.024;16.296;2023-06-04T14:09:14;4.17;;;3.30;;
4692;SDS011;11710;48.024;16.296;2023-06-04T14:11:42;3.90;;;3.40;;
4692;SDS011;11710;48.024;16.296;2023-06-04T14:14:09;4.83;;;3.57;;
4692;SDS011;11710;48.024;16.296;2023-06-04T14:16:36;4.77;;;3.73;;
4692;SDS011;11710;48.024;16.296;2023-06-04T14:19:05;4.60;;;3.10;;
4692;SDS011;11710;48.024;16.296;2023-06-04T14:21:33;5.23;;;4.33;;
4692;SDS011;11710;48.024;16.296;2023-06-04T14:24:01;4.47;;;4.07;;
4692;SDS011;11710;48.024;16.296;2023-06-04T14:26:28;5.67;;;3.90;;
4692;SDS011;11710;48.024;16.296;2023-06-04T14:28:55;5.30;;;3.60;;
4692;SDS011;11710;48.024;16.296;2023-06-04T14:31:23;4.50;;;3.73;;
4692;SDS011;11710;48.024;16.296;2023-06-04T14:33:50;6.70;;;4.00;;
4692;SDS011;11710;48.024;16.296;2023-06-04T14:36:19;4.33;;;3.93;;
4692;SDS011;11710;48.024;16.296;2023-06-04T14:38:46;4.87;;;3.90;;
4692;SDS011;11710;48.024;16.296;2023-06-04T14:41:14;5.00;;;4.33;;
4692;SDS011;11710;48.024;16.296;2023-06-04T14:43:42;5.90;;;4.13;;
4692;SDS011;11710;48.024;16.296;2023-06-04T14:46:09;4.83;;;4.20;;
4692;SDS011;11710;48.024;16.296;2023-06-04T14:48:37;6.80;;;4.60;;
4692;SDS011;11710;48.024;16.296;2023-06-04T14:51:04;4.83;;;4.00;;
4692;SDS011;11710;48.024;16.296;2023-06-04T14:53:32;6.67;;;4.20;;
4692;SDS011;11710;48.024;16.296;2023-06-04T14:55:59;5.67;;;4.70;;
4692;SDS011;11710;48.024;16.296;2023-06-04T14:58:27;4.83;;;4.23;;